Time;durP1;ratioP1;P1;durP2;ratioP2;P2;SDS_P1;SDS_P2;PMS_P1;PMS_P2;Temp;Humidity;BMP_temperature;BMP_pressure;BME280_temperature;BME280_humidity;BME280_pressure;Samples;Min_cycle;Max_cycle;Signal;HPM_P1;HPM_P2
2024/05/03 00:00:32;;;;;;;3.70;3.23;;;12.70;99.90;;;;;;5488565;26;20253;-76
2024/05/03 00:02:58;;;;;;;2.70;2.60;;;12.60;99.90;;;;;;5488447;26;20241;-76
2024/05/03 00:05:24;;;;;;;3.23;3.03;;;12.60;99.90;;;;;;5488868;26;20264;-75
2024/05/03 00:07:50;;;;;;;2.77;2.67;;;12.60;99.90;;;;;;5488210;26;20248;-73
2024/05/03 00:10:15;;;;;;;3.27;2.87;;;12.50;99.90;;;;;;5455565;26;20266;-74
2024/05/03 00:12:41;;;;;;;2.80;2.70;;;12.50;99.90;;;;;;5488609;26;20265;-75
2024/05/03 00:15:07;;;;;;;2.90;2.80;;;12.50;99.90;;;;;;5488726;26;20322;-75
2024/05/03 00:17:32;;;;;;;2.67;2.57;;;12.50;99.90;;;;;;5488917;26;20218;-75
2024/05/03 00:19:58;;;;;;;2.53;2.43;;;12.40;99.90;;;;;;5488387;26;20210;-75
2024/05/03 00:22:23;;;;;;;2.30;2.20;;;12.40;99.90;;;;;;5488064;26;20640;-74
2024/05/03 00:24:49;;;;;;;2.40;2.30;;;12.30;99.90;;;;;;5488322;26;20222;-75
2024/05/03 00:27:17;;;;;;;2.77;2.67;;;12.40;99.90;;;;;;5455831;26;20242;-76
2024/05/03 00:29:43;;;;;;;2.50;2.40;;;12.40;99.90;;;;;;5488501;26;20265;-75
2024/05/03 00:32:10;;;;;;;4.10;2.70;;;12.30;99.90;;;;;;5488457;26;20265;-74
2024/05/03 00:34:36;;;;;;;19.63;2.90;;;12.30;99.90;;;;;;5487964;26;20210;-74
2024/05/03 00:37:01;;;;;;;2.60;2.50;;;12.20;99.90;;;;;;5488260;26;20214;-75
2024/05/03 00:39:27;;;;;;;2.77;2.57;;;12.20;99.90;;;;;;5488207;26;20256;-76
2024/05/03 00:41:52;;;;;;;3.83;3.03;;;12.20;99.90;;;;;;5488056;26;20546;-75
2024/05/03 00:44:18;;;;;;;2.40;2.30;;;12.10;99.90;;;;;;5488297;26;20256;-74
2024/05/03 00:46:44;;;;;;;2.60;2.50;;;12.10;99.90;;;;;;5488271;26;20717;-75
2024/05/03 00:49:10;;;;;;;2.67;2.53;;;12.10;99.90;;;;;;5488492;26;20218;-74
2024/05/03 00:51:36;;;;;;;2.60;2.50;;;12.10;99.90;;;;;;5488006;26;20601;-75
2024/05/03 00:54:03;;;;;;;4.07;2.63;;;12.10;99.90;;;;;;5487953;26;20218;-74
2024/05/03 00:56:28;;;;;;;2.60;2.50;;;12.20;99.90;;;;;;5488239;26;20289;-75
2024/05/03 00:58:54;;;;;;;2.90;2.80;;;12.20;99.90;;;;;;5488398;26;20256;-75
2024/05/03 01:01:20;;;;;;;2.80;2.70;;;12.10;99.90;;;;;;5488251;26;20210;-74
2024/05/03 01:03:46;;;;;;;3.00;2.80;;;12.10;99.90;;;;;;5488112;26;20693;-75
2024/05/03 01:06:11;;;;;;;2.60;2.50;;;12.00;99.90;;;;;;5488421;26;20226;-74
2024/05/03 01:08:37;;;;;;;3.87;3.67;;;12.00;99.90;;;;;;5488099;26;20260;-77
2024/05/03 01:11:03;;;;;;;2.60;2.50;;;12.00;99.90;;;;;;5487767;26;20297;-74
2024/05/03 01:13:28;;;;;;;3.03;2.93;;;12.10;99.90;;;;;;5488199;26;20287;-76
2024/05/03 01:15:54;;;;;;;3.23;2.93;;;12.00;99.90;;;;;;5488073;26;20648;-74
2024/05/03 01:18:19;;;;;;;2.70;2.60;;;12.00;99.90;;;;;;5487816;26;20214;-76
2024/05/03 01:20:45;;;;;;;3.00;2.80;;;11.90;99.90;;;;;;5486198;26;20205;-75
2024/05/03 01:23:13;;;;;;;2.47;2.37;;;11.90;99.90;;;;;;5487632;26;20205;-76
2024/05/03 01:25:43;;;;;;;2.63;2.53;;;11.80;99.90;;;;;;5487257;26;20317;-74
2024/05/03 01:28:09;;;;;;;3.10;3.00;;;11.80;99.90;;;;;;5487819;26;20206;-76
2024/05/03 01:30:34;;;;;;;2.80;2.70;;;11.80;99.90;;;;;;5487538;26;20210;-76
2024/05/03 01:33:00;;;;;;;3.10;2.90;;;11.80;99.90;;;;;;5487082;26;20320;-75
2024/05/03 01:35:26;;;;;;;2.70;2.60;;;11.80;99.90;;;;;;5487004;26;20225;-76
2024/05/03 01:37:51;;;;;;;2.57;2.47;;;11.80;99.90;;;;;;5487256;26;20218;-75
2024/05/03 01:40:17;;;;;;;2.60;2.50;;;11.90;99.90;;;;;;5487213;26;20261;-74
2024/05/03 01:42:42;;;;;;;3.00;2.90;;;11.90;99.90;;;;;;5487581;26;20218;-76
2024/05/03 01:45:08;;;;;;;2.30;2.20;;;11.90;99.90;;;;;;5487148;26;20206;-76
2024/05/03 01:47:34;;;;;;;2.40;2.30;;;11.90;99.90;;;;;;5615877;21;20261;-77
2024/05/03 01:50:00;;;;;;;2.40;2.30;;;11.90;99.90;;;;;;5487240;26;20309;-76
2024/05/03 01:52:26;;;;;;;2.43;2.33;;;11.80;99.90;;;;;;5487319;26;20206;-75
2024/05/03 01:54:52;;;;;;;2.40;2.30;;;11.80;99.90;;;;;;5486793;26;20219;-76
2024/05/03 01:57:17;;;;;;;2.97;2.87;;;11.70;99.90;;;;;;5487151;26;20222;-76
2024/05/03 01:59:43;;;;;;;2.97;2.87;;;11.70;99.90;;;;;;5486636;26;20713;-76
2024/05/03 02:02:08;;;;;;;2.67;2.57;;;11.70;99.90;;;;;;5454652;26;20248;-76
2024/05/03 02:04:34;;;;;;;2.67;2.57;;;11.70;99.90;;;;;;5486435;26;20222;-77
2024/05/03 02:06:59;;;;;;;2.70;2.60;;;11.70;99.90;;;;;;5486759;26;20256;-77
2024/05/03 02:09:26;;;;;;;2.97;2.87;;;11.70;99.90;;;;;;5486654;26;20269;-77
2024/05/03 02:11:51;;;;;;;2.57;2.47;;;11.80;99.90;;;;;;5486582;26;20214;-76
2024/05/03 02:14:17;;;;;;;3.10;2.93;;;11.80;99.90;;;;;;5486664;26;20599;-77
2024/05/03 02:16:42;;;;;;;2.60;2.50;;;11.80;99.90;;;;;;5486528;26;20230;-77
2024/05/03 02:19:08;;;;;;;2.40;2.30;;;11.80;99.90;;;;;;5487139;26;20210;-77
2024/05/03 02:21:39;;;;;;;2.87;2.77;;;11.80;99.90;;;;;;5487354;26;20253;-76
2024/05/03 02:24:05;;;;;;;2.40;2.30;;;11.80;99.90;;;;;;5486898;26;20264;-77
2024/05/03 02:26:31;;;;;;;5.23;3.27;;;11.80;99.90;;;;;;5487093;26;20214;-76
2024/05/03 02:28:56;;;;;;;2.97;2.87;;;11.70;99.90;;;;;;5487527;26;20252;-76
2024/05/03 02:31:22;;;;;;;2.80;2.70;;;11.70;99.90;;;;;;5488163;26;20214;-77
2024/05/03 02:33:47;;;;;;;2.40;2.30;;;11.80;99.90;;;;;;5491041;26;20210;-76
2024/05/03 02:36:14;;;;;;;4.07;2.93;;;11.80;99.90;;;;;;5490555;26;20222;-77
2024/05/03 02:38:43;;;;;;;3.07;2.97;;;11.70;99.90;;;;;;5490029;26;20233;-77
2024/05/03 02:41:14;;;;;;;2.57;2.47;;;11.60;99.90;;;;;;5490541;26;20240;-76
2024/05/03 02:43:43;;;;;;;2.63;2.53;;;11.60;99.90;;;;;;5490442;26;20203;-76
2024/05/03 02:46:09;;;;;;;2.47;2.33;;;11.60;99.90;;;;;;5490182;26;20269;-76
2024/05/03 02:48:35;;;;;;;2.67;2.57;;;11.60;99.90;;;;;;5490127;26;20209;-77
2024/05/03 02:51:00;;;;;;;2.50;2.40;;;11.60;99.90;;;;;;5490120;26;20222;-76
2024/05/03 02:53:26;;;;;;;2.27;2.17;;;11.60;99.90;;;;;;5490019;26;20304;-76
2024/05/03 02:55:52;;;;;;;2.80;2.70;;;11.60;99.90;;;;;;5490108;26;20315;-77
2024/05/03 02:58:17;;;;;;;2.93;2.83;;;11.70;99.90;;;;;;5490206;26;20206;-77
2024/05/03 03:00:43;;;;;;;2.60;2.50;;;11.70;99.90;;;;;;5490607;26;20218;-76
2024/05/03 03:03:08;;;;;;;2.73;2.63;;;11.70;99.90;;;;;;5490058;26;20202;-76
2024/05/03 03:05:34;;;;;;;2.60;2.50;;;11.70;99.90;;;;;;5490349;26;20307;-76
2024/05/03 03:08:00;;;;;;;3.33;3.23;;;11.70;99.90;;;;;;5490194;26;20214;-77
2024/05/03 03:10:25;;;;;;;2.53;2.43;;;11.70;99.90;;;;;;5489423;26;20223;-77
2024/05/03 03:12:52;;;;;;;2.80;2.70;;;11.70;99.90;;;;;;5489771;26;20310;-77
2024/05/03 03:15:17;;;;;;;2.50;2.40;;;11.70;99.90;;;;;;5490185;26;20210;-77
2024/05/03 03:17:44;;;;;;;2.40;2.30;;;11.70;99.90;;;;;;5489984;26;20253;-76
2024/05/03 03:20:10;;;;;;;2.53;2.43;;;11.80;99.90;;;;;;5489914;26;20222;-77
2024/05/03 03:22:35;;;;;;;2.60;2.50;;;11.80;99.90;;;;;;5489603;26;20260;-77
2024/05/03 03:25:05;;;;;;;2.73;2.63;;;11.80;99.90;;;;;;5488981;26;20326;-76
2024/05/03 03:27:31;;;;;;;2.70;2.60;;;11.70;99.90;;;;;;5489653;26;20318;-77
2024/05/03 03:29:56;;;;;;;2.30;2.20;;;11.70;99.90;;;;;;5489947;26;20222;-76
2024/05/03 03:32:23;;;;;;;2.50;2.40;;;11.70;99.90;;;;;;5489763;26;20466;-76
2024/05/03 03:34:49;;;;;;;2.60;2.50;;;11.60;99.90;;;;;;5490008;26;20221;-76
2024/05/03 03:37:17;;;;;;;2.50;2.40;;;11.60;99.90;;;;;;5489708;26;20227;-77
2024/05/03 03:39:43;;;;;;;2.40;2.30;;;11.60;99.90;;;;;;5490173;26;20218;-77
2024/05/03 03:42:09;;;;;;;2.30;2.20;;;11.60;99.90;;;;;;5489909;26;20260;-77
2024/05/03 03:44:35;;;;;;;3.07;2.83;;;11.70;99.90;;;;;;5488624;26;20245;-76
2024/05/03 03:47:01;;;;;;;2.50;2.40;;;11.70;99.90;;;;;;5489169;26;20222;-77
2024/05/03 03:49:26;;;;;;;2.43;2.33;;;11.70;99.90;;;;;;5489476;26;20201;-77
2024/05/03 03:51:52;;;;;;;2.70;2.60;;;11.70;99.90;;;;;;5489656;26;20209;-77
2024/05/03 03:54:17;;;;;;;2.50;2.40;;;11.60;99.90;;;;;;5489417;26;20222;-77
2024/05/03 03:56:43;;;;;;;2.80;2.70;;;11.60;99.90;;;;;;5489333;26;20303;-76
2024/05/03 03:59:12;;;;;;;2.60;2.50;;;11.60;99.90;;;;;;5489408;26;20214;-78
2024/05/03 04:01:39;;;;;;;2.50;2.40;;;11.50;99.90;;;;;;5489221;26;20254;-76
2024/05/03 04:04:04;;;;;;;2.80;2.70;;;11.60;99.90;;;;;;5489401;26;20210;-77
2024/05/03 04:06:30;;;;;;;2.60;2.50;;;11.50;99.90;;;;;;5488987;26;20222;-76
2024/05/03 04:08:56;;;;;;;2.60;2.50;;;11.50;99.90;;;;;;5491123;26;20593;-77
2024/05/03 04:11:21;;;;;;;2.50;2.40;;;11.50;99.90;;;;;;5494056;26;20206;-77
2024/05/03 04:13:47;;;;;;;2.70;2.60;;;11.50;99.90;;;;;;5492763;26;20327;-77
2024/05/03 04:16:12;;;;;;;2.60;2.50;;;11.40;99.90;;;;;;5493460;26;20230;-76
2024/05/03 04:18:38;;;;;;;2.50;2.40;;;11.40;99.90;;;;;;5461129;26;20218;-75
2024/05/03 04:21:06;;;;;;;4.07;3.07;;;11.40;99.90;;;;;;5493425;26;20206;-77
2024/05/03 04:23:32;;;;;;;2.60;2.50;;;11.30;99.90;;;;;;5460502;26;20701;-77
2024/05/03 04:25:57;;;;;;;2.50;2.40;;;11.30;99.90;;;;;;5493438;26;20260;-76
2024/05/03 04:28:23;;;;;;;2.47;2.37;;;11.40;99.90;;;;;;5490206;26;20736;-77
2024/05/03 04:30:48;;;;;;;2.50;2.40;;;11.50;99.90;;;;;;5492460;26;20206;-76
2024/05/03 04:33:14;;;;;;;2.50;2.40;;;11.50;99.90;;;;;;5493308;26;20689;-77
2024/05/03 04:35:40;;;;;;;2.70;2.60;;;11.50;99.90;;;;;;5492504;26;20206;-77
2024/05/03 04:38:05;;;;;;;2.40;2.30;;;11.50;99.90;;;;;;5491824;26;20222;-77
2024/05/03 04:40:31;;;;;;;2.30;2.20;;;11.50;99.90;;;;;;5491880;26;20226;-76
2024/05/03 04:42:56;;;;;;;2.40;2.30;;;11.50;99.90;;;;;;5494967;26;20218;-76
2024/05/03 04:45:22;;;;;;;2.40;2.30;;;11.40;99.90;;;;;;5495327;26;20210;-77
2024/05/03 04:47:48;;;;;;;2.60;2.50;;;11.40;99.90;;;;;;5490968;26;20274;-77
2024/05/03 04:50:13;;;;;;;2.60;2.50;;;11.30;99.90;;;;;;5492268;26;20214;-77
2024/05/03 04:52:39;;;;;;;2.53;2.43;;;11.30;99.90;;;;;;5491085;26;20264;-77
2024/05/03 04:55:06;;;;;;;2.60;2.50;;;11.40;99.90;;;;;;5488464;26;20821;-76
2024/05/03 04:57:32;;;;;;;2.40;2.30;;;11.40;99.90;;;;;;5488319;26;20701;-76
2024/05/03 04:59:57;;;;;;;2.50;2.40;;;11.40;99.90;;;;;;5488546;26;20222;-77
2024/05/03 05:02:23;;;;;;;2.60;2.50;;;11.40;99.90;;;;;;5487278;26;20754;-76
2024/05/03 05:04:49;;;;;;;2.80;2.70;;;11.50;99.90;;;;;;5487934;26;20213;-76
2024/05/03 05:07:14;;;;;;;2.60;2.50;;;11.50;99.90;;;;;;5487901;26;20318;-77
2024/05/03 05:09:40;;;;;;;3.00;2.80;;;11.60;99.90;;;;;;5488538;26;20206;-77
2024/05/03 05:12:06;;;;;;;2.40;2.30;;;11.60;99.90;;;;;;5488610;26;20206;-77
2024/05/03 05:14:31;;;;;;;2.60;2.50;;;11.70;99.90;;;;;;5487508;26;20299;-77
2024/05/03 05:16:57;;;;;;;2.67;2.57;;;11.60;99.90;;;;;;5488216;26;20558;-77
2024/05/03 05:19:23;;;;;;;2.50;2.40;;;11.60;99.90;;;;;;5488222;26;20203;-77
2024/05/03 05:22:07;;;;;;;2.60;2.50;;;11.60;99.90;;;;;;5487714;26;20290;-77
2024/05/03 05:24:34;;;;;;;2.50;2.40;;;11.50;99.90;;;;;;5488923;26;20566;-76
2024/05/03 05:26:59;;;;;;;2.40;2.30;;;11.50;99.90;;;;;;5500117;26;20563;-76
2024/05/03 05:29:25;;;;;;;2.40;2.30;;;11.50;99.90;;;;;;5523530;26;20313;-76
2024/05/03 05:31:50;;;;;;;2.40;2.30;;;11.50;99.90;;;;;;5523118;26;20255;-76
2024/05/03 05:34:17;;;;;;;2.40;2.30;;;11.40;99.90;;;;;;5522973;26;20293;-77
2024/05/03 05:36:42;;;;;;;2.50;2.40;;;11.40;99.90;;;;;;5487420;26;20276;-77
2024/05/03 05:39:08;;;;;;;2.40;2.30;;;11.40;99.90;;;;;;5479433;26;20224;-77
2024/05/03 05:41:34;;;;;;;2.40;2.30;;;11.40;99.90;;;;;;5487399;26;20334;-77
2024/05/03 05:44:04;;;;;;;2.50;2.40;;;11.40;99.90;;;;;;5487577;26;20260;-76
2024/05/03 05:46:29;;;;;;;2.57;2.47;;;11.40;99.90;;;;;;5479594;26;20230;-77
2024/05/03 05:48:55;;;;;;;2.40;2.30;;;11.50;99.90;;;;;;5488148;26;20817;-77
2024/05/03 05:51:21;;;;;;;2.50;2.40;;;11.50;99.90;;;;;;5487501;26;20747;-76
2024/05/03 05:53:49;;;;;;;2.60;2.50;;;11.40;99.90;;;;;;5487116;26;20330;-77
2024/05/03 05:56:14;;;;;;;2.50;2.40;;;11.40;99.90;;;;;;5487078;26;20218;-76
2024/05/03 05:58:41;;;;;;;2.50;2.40;;;11.30;99.90;;;;;;5484524;26;20564;-76
2024/05/03 06:01:06;;;;;;;2.40;2.30;;;11.30;99.90;;;;;;5486788;26;20222;-77
2024/05/03 06:03:33;;;;;;;2.60;2.50;;;11.30;99.90;;;;;;5486759;26;20210;-76
2024/05/03 06:05:59;;;;;;;2.97;2.63;;;11.30;99.90;;;;;;5455291;26;20743;-77
2024/05/03 06:08:25;;;;;;;2.50;2.40;;;11.30;99.90;;;;;;5487878;26;20274;-77
2024/05/03 06:10:51;;;;;;;3.23;3.10;;;11.30;99.90;;;;;;5486980;26;20329;-76
2024/05/03 06:13:17;;;;;;;3.20;2.93;;;11.30;99.90;;;;;;5487286;26;20249;-77
2024/05/03 06:15:42;;;;;;;2.60;2.50;;;11.40;99.90;;;;;;5488092;26;20210;-77
2024/05/03 06:18:08;;;;;;;2.50;2.40;;;11.50;99.90;;;;;;5489710;26;20256;-77
2024/05/03 06:20:34;;;;;;;2.50;2.40;;;11.50;99.90;;;;;;5487145;26;20256;-77
2024/05/03 06:22:59;;;;;;;2.73;2.63;;;11.50;99.90;;;;;;5488975;26;20314;-76
2024/05/03 06:25:25;;;;;;;2.50;2.40;;;11.50;99.90;;;;;;5459019;26;20318;-76
2024/05/03 06:27:53;;;;;;;2.50;2.40;;;11.40;99.90;;;;;;5450987;26;20273;-77
2024/05/03 06:30:19;;;;;;;2.50;2.40;;;11.30;99.90;;;;;;5450687;26;20590;-77
2024/05/03 06:32:44;;;;;;;2.60;2.50;;;11.30;99.90;;;;;;5453012;26;20257;-78
2024/05/03 06:35:10;;;;;;;2.50;2.40;;;11.30;99.90;;;;;;5458614;26;20215;-76
2024/05/03 06:37:36;;;;;;;2.70;2.60;;;11.30;99.90;;;;;;5468453;26;20257;-76
2024/05/03 06:40:03;;;;;;;2.50;2.40;;;11.30;99.90;;;;;;5485310;26;20218;-76
2024/05/03 06:42:29;;;;;;;2.50;2.40;;;11.20;99.90;;;;;;5495832;26;20237;-76
2024/05/03 06:44:55;;;;;;;2.40;2.30;;;11.30;99.90;;;;;;5502633;26;20206;-76
2024/05/03 06:47:20;;;;;;;2.93;2.83;;;11.50;99.90;;;;;;5503342;26;20222;-76
2024/05/03 06:49:46;;;;;;;2.67;2.57;;;11.60;99.90;;;;;;5492768;26;20252;-76
2024/05/03 06:52:11;;;;;;;2.60;2.50;;;11.60;99.90;;;;;;5492580;26;20442;-77
2024/05/03 06:54:37;;;;;;;2.47;2.37;;;11.70;99.90;;;;;;5497032;26;20773;-76
2024/05/03 06:57:03;;;;;;;2.40;2.30;;;11.70;99.90;;;;;;5501341;26;20226;-76
2024/05/03 06:59:29;;;;;;;2.50;2.40;;;11.60;99.90;;;;;;5500335;26;20221;-76
2024/05/03 07:01:55;;;;;;;2.60;2.50;;;11.70;99.90;;;;;;5491177;26;20238;-77
2024/05/03 07:04:24;;;;;;;2.57;2.47;;;11.60;99.90;;;;;;5501272;26;20258;-77
2024/05/03 07:06:49;;;;;;;2.60;2.50;;;11.60;99.90;;;;;;5498119;26;20230;-77
2024/05/03 07:09:15;;;;;;;2.50;2.40;;;11.50;99.90;;;;;;5489083;26;20304;-77
2024/05/03 07:11:44;;;;;;;2.60;2.50;;;11.60;99.90;;;;;;5485749;26;20253;-76
2024/05/03 07:14:10;;;;;;;2.50;2.40;;;11.60;99.90;;;;;;5485784;26;20221;-77
2024/05/03 07:16:35;;;;;;;2.40;2.30;;;11.60;99.90;;;;;;5486261;26;20274;-77
2024/05/03 07:19:01;;;;;;;2.40;2.30;;;11.60;99.90;;;;;;5488145;26;20666;-77
2024/05/03 07:21:28;;;;;;;2.40;2.30;;;11.60;99.90;;;;;;5489996;26;20249;-77
2024/05/03 07:23:54;;;;;;;2.70;2.60;;;11.70;99.90;;;;;;5487742;26;20256;-79
2024/05/03 07:26:20;;;;;;;3.20;3.00;;;11.70;99.90;;;;;;5458893;26;20578;-77
2024/05/03 07:28:45;;;;;;;3.30;3.10;;;11.70;99.90;;;;;;5489015;26;20206;-76
2024/05/03 07:31:11;;;;;;;3.23;3.10;;;11.60;99.90;;;;;;5489008;26;20211;-78
2024/05/03 07:33:38;;;;;;;3.93;3.20;;;11.60;99.90;;;;;;5490167;26;20206;-77
2024/05/03 07:36:05;;;;;;;3.40;3.20;;;11.60;99.90;;;;;;5493019;26;20451;-77
2024/05/03 07:38:32;;;;;;;3.47;3.30;;;11.60;99.90;;;;;;5489943;26;20326;-78
2024/05/03 07:40:58;;;;;;;3.80;3.50;;;11.50;99.90;;;;;;5490397;26;20206;-76
2024/05/03 07:43:31;;;;;;;5.77;4.30;;;11.40;99.90;;;;;;5491667;26;20210;-78
2024/05/03 07:46:00;;;;;;;4.13;3.83;;;11.30;99.90;;;;;;5458987;26;20222;-77
2024/05/03 07:48:26;;;;;;;3.90;3.70;;;11.30;99.90;;;;;;5491094;26;20206;-77
2024/05/03 07:50:52;;;;;;;4.70;4.20;;;11.30;99.90;;;;;;5490780;26;20210;-77
2024/05/03 07:53:17;;;;;;;4.70;4.30;;;11.40;99.90;;;;;;5488545;26;20210;-76
2024/05/03 07:55:43;;;;;;;4.73;4.33;;;11.50;99.90;;;;;;5488523;26;20206;-76
2024/05/03 07:58:08;;;;;;;5.90;5.27;;;11.50;99.90;;;;;;5489130;26;20218;-76
2024/05/03 08:00:35;;;;;;;5.73;5.23;;;11.50;99.90;;;;;;5488354;26;20218;-76
2024/05/03 08:03:01;;;;;;;6.50;5.30;;;11.50;99.90;;;;;;5488478;26;20748;-76
2024/05/03 08:05:28;;;;;;;7.23;5.13;;;11.50;99.90;;;;;;5488922;26;20206;-75
2024/05/03 08:07:56;;;;;;;9.10;5.30;;;11.30;99.90;;;;;;5488254;26;20222;-74
2024/05/03 08:10:22;;;;;;;9.17;5.20;;;11.30;99.90;;;;;;5488591;26;20210;-76
2024/05/03 08:12:48;;;;;;;6.03;5.40;;;11.40;99.90;;;;;;5489022;26;20241;-75
2024/05/03 08:15:14;;;;;;;5.80;5.30;;;11.50;99.90;;;;;;5490077;26;20222;-76
2024/05/03 08:17:39;;;;;;;6.37;5.73;;;11.40;99.90;;;;;;5488285;26;20633;-74
2024/05/03 08:20:06;;;;;;;6.40;5.80;;;11.50;99.90;;;;;;5489060;26;20222;-75
2024/05/03 08:22:36;;;;;;;6.00;5.60;;;11.60;99.90;;;;;;5488348;26;20349;-76
2024/05/03 08:25:04;;;;;;;6.00;5.60;;;11.80;99.90;;;;;;5456714;26;20222;-76
2024/05/03 08:27:30;;;;;;;5.40;4.90;;;11.90;99.90;;;;;;5487985;26;20325;-75
2024/05/03 08:29:55;;;;;;;6.13;4.43;;;11.90;99.90;;;;;;5486979;26;20544;-76
2024/05/03 08:32:21;;;;;;;7.00;4.77;;;11.90;99.90;;;;;;5486699;26;20215;-76
2024/05/03 08:34:46;;;;;;;4.67;4.27;;;11.90;99.90;;;;;;5487949;26;20270;-75
2024/05/03 08:37:12;;;;;;;5.00;4.40;;;12.00;99.90;;;;;;5486788;26;20214;-74
2024/05/03 08:39:38;;;;;;;5.97;4.30;;;12.00;99.90;;;;;;5488372;26;20284;-75
2024/05/03 08:42:17;;;;;;;5.63;4.27;;;11.80;99.90;;;;;;5488847;26;20656;-73
2024/05/03 08:44:48;;;;;;;4.10;3.80;;;11.70;99.90;;;;;;5487781;26;20202;-76
2024/05/03 08:47:17;;;;;;;4.83;4.40;;;11.70;99.90;;;;;;5488209;26;20604;-75
2024/05/03 08:49:56;;;;;;;5.00;4.40;;;11.70;99.90;;;;;;5488427;26;20233;-74
2024/05/03 08:52:23;;;;;;;4.30;4.00;;;11.80;99.90;;;;;;5487006;26;20781;-75
2024/05/03 08:54:50;;;;;;;5.10;4.60;;;11.80;99.90;;;;;;5488514;26;20241;-76
2024/05/03 08:57:16;;;;;;;5.93;4.23;;;11.70;99.90;;;;;;5489558;26;20288;-76
2024/05/03 08:59:44;;;;;;;7.17;4.97;;;11.80;99.90;;;;;;5456465;26;20225;-76
2024/05/03 09:02:09;;;;;;;5.03;4.40;;;12.00;99.90;;;;;;5458130;26;20554;-76
2024/05/03 09:04:39;;;;;;;6.40;4.33;;;12.10;99.90;;;;;;5486930;26;20221;-77
2024/05/03 09:07:09;;;;;;;5.60;4.50;;;12.20;99.90;;;;;;5487894;26;20273;-75
2024/05/03 09:09:45;;;;;;;4.70;4.30;;;12.10;99.90;;;;;;5487867;26;20214;-75
2024/05/03 09:12:11;;;;;;;4.83;4.10;;;12.20;99.90;;;;;;5487645;26;20210;-76
2024/05/03 09:14:38;;;;;;;5.93;4.27;;;12.20;99.90;;;;;;5487075;26;20763;-76
2024/05/03 09:17:04;;;;;;;5.03;3.73;;;12.30;99.90;;;;;;5487152;26;20271;-75
2024/05/03 09:19:29;;;;;;;6.40;3.70;;;12.20;99.90;;;;;;5487335;26;20249;-75
2024/05/03 09:21:55;;;;;;;4.20;3.80;;;12.10;99.90;;;;;;5486562;26;20732;-75
2024/05/03 09:24:22;;;;;;;4.50;3.50;;;12.10;99.90;;;;;;5487117;26;20225;-76
2024/05/03 09:26:48;;;;;;;3.70;3.40;;;12.10;99.90;;;;;;5486317;26;20233;-75
2024/05/03 09:29:19;;;;;;;5.17;3.67;;;12.20;99.90;;;;;;5486893;26;20693;-75
2024/05/03 09:31:46;;;;;;;4.07;3.67;;;12.30;99.90;;;;;;5487150;26;20785;-75
2024/05/03 09:34:11;;;;;;;4.60;3.20;;;12.30;99.90;;;;;;5486947;26;20269;-75
2024/05/03 09:36:40;;;;;;;4.77;3.70;;;12.10;99.90;;;;;;5486868;26;20342;-75
2024/05/03 09:39:05;;;;;;;4.37;3.50;;;12.00;99.90;;;;;;5487110;26;20214;-76
2024/05/03 09:41:32;;;;;;;3.87;3.47;;;12.00;99.90;;;;;;5485793;26;20261;-74
2024/05/03 09:43:58;;;;;;;4.50;3.57;;;12.00;99.90;;;;;;5486413;26;20218;-74
2024/05/03 09:46:28;;;;;;;4.00;3.70;;;12.00;99.90;;;;;;5486518;26;20725;-74
2024/05/03 09:48:55;;;;;;;4.23;3.83;;;12.10;99.90;;;;;;5487059;26;20210;-75
2024/05/03 09:51:26;;;;;;;3.83;3.53;;;12.10;99.90;;;;;;5487482;26;20210;-75
2024/05/03 09:54:01;;;;;;;3.90;3.50;;;12.30;99.90;;;;;;5487471;26;20260;-74
2024/05/03 09:56:37;;;;;;;3.70;3.47;;;12.40;99.90;;;;;;5487151;26;20260;-75
2024/05/03 09:59:05;;;;;;;4.57;3.90;;;12.50;99.90;;;;;;5487360;26;20206;-76
2024/05/03 10:01:34;;;;;;;5.30;3.80;;;12.60;99.90;;;;;;5487444;26;20222;-76
2024/05/03 10:04:01;;;;;;;6.83;3.77;;;12.90;99.90;;;;;;5487330;26;20681;-75
2024/05/03 10:06:28;;;;;;;4.77;3.60;;;13.20;99.90;;;;;;5487477;26;20701;-75
2024/05/03 10:08:54;;;;;;;3.70;3.40;;;13.50;99.90;;;;;;5487144;26;20571;-75
2024/05/03 10:11:21;;;;;;;3.40;3.10;;;13.80;99.90;;;;;;5487705;26;20252;-76
2024/05/03 10:13:48;;;;;;;4.83;3.10;;;14.10;99.90;;;;;;5486995;26;20548;-76
2024/05/03 10:16:16;;;;;;;3.20;3.00;;;14.10;99.90;;;;;;5486522;26;20673;-75
2024/05/03 10:18:43;;;;;;;3.53;3.23;;;14.00;99.90;;;;;;5486594;26;20234;-74
2024/05/03 10:21:31;;;;;;;4.60;2.97;;;14.00;99.90;;;;;;5484334;26;20225;-74
2024/05/03 10:24:00;;;;;;;4.33;3.13;;;14.10;99.90;;;;;;5486967;26;20213;-76
2024/05/03 10:26:27;;;;;;;3.43;2.67;;;14.10;99.90;;;;;;5486975;26;20295;-75
2024/05/03 10:28:58;;;;;;;4.90;3.20;;;14.00;99.90;;;;;;5486268;26;20206;-75
2024/05/03 10:31:24;;;;;;;3.23;2.97;;;13.90;99.90;;;;;;5454590;26;20253;-75
2024/05/03 10:33:54;;;;;;;5.10;2.90;;;13.70;99.90;;;;;;5487095;26;20226;-74
2024/05/03 10:36:22;;;;;;;3.37;3.07;;;13.60;99.90;;;;;;5490523;26;20218;-75
2024/05/03 10:38:49;;;;;;;3.20;2.90;;;13.40;99.90;;;;;;5457996;26;20506;-75
2024/05/03 10:41:14;;;;;;;4.80;3.00;;;13.40;99.90;;;;;;5487578;26;20214;-74
2024/05/03 10:43:40;;;;;;;4.97;3.00;;;13.30;99.90;;;;;;5450755;26;20257;-74
2024/05/03 10:46:06;;;;;;;4.10;2.80;;;13.30;99.90;;;;;;5449947;26;20227;-75
2024/05/03 10:48:35;;;;;;;4.87;3.33;;;13.30;99.90;;;;;;5465618;26;20272;-73
2024/05/03 10:51:02;;;;;;;3.67;3.30;;;13.30;99.90;;;;;;5486124;26;20618;-74
2024/05/03 10:53:28;;;;;;;3.87;3.43;;;13.30;99.90;;;;;;5488337;26;20248;-74
2024/05/03 10:55:55;;;;;;;3.63;3.20;;;13.20;99.90;;;;;;5489821;26;20588;-72
2024/05/03 10:58:22;;;;;;;4.23;3.40;;;13.20;99.90;;;;;;5490958;26;20214;-75
2024/05/03 11:00:48;;;;;;;6.87;3.30;;;13.20;99.90;;;;;;5489360;26;20240;-74
2024/05/03 11:03:13;;;;;;;5.07;3.30;;;13.20;99.90;;;;;;5489349;26;20218;-74
2024/05/03 11:05:39;;;;;;;4.40;3.20;;;13.20;99.90;;;;;;5489712;26;20217;-75
2024/05/03 11:08:06;;;;;;;3.30;3.10;;;13.20;99.90;;;;;;5489660;26;20210;-74
2024/05/03 11:10:31;;;;;;;2.97;2.77;;;13.10;99.90;;;;;;5489466;26;20233;-74
2024/05/03 11:12:58;;;;;;;3.03;2.73;;;13.00;99.90;;;;;;5490436;26;20206;-73
2024/05/03 11:15:23;;;;;;;4.03;3.00;;;13.00;99.90;;;;;;5490411;26;20253;-74
2024/05/03 11:17:50;;;;;;;5.47;3.83;;;13.10;99.90;;;;;;5489771;26;20230;-74
2024/05/03 11:20:16;;;;;;;2.90;2.70;;;13.10;99.90;;;;;;5489852;26;20222;-73
2024/05/03 11:22:41;;;;;;;3.10;2.90;;;13.40;99.90;;;;;;5488804;26;20322;-73
2024/05/03 11:25:07;;;;;;;3.77;2.93;;;13.80;99.90;;;;;;5489019;26;20210;-73
2024/05/03 11:27:42;;;;;;;3.10;2.90;;;14.20;99.90;;;;;;5489226;26;20720;-73
2024/05/03 11:30:08;;;;;;;3.97;2.87;;;14.50;99.90;;;;;;5491129;26;20255;-74
2024/05/03 11:32:34;;;;;;;5.93;3.70;;;14.60;99.90;;;;;;5489612;26;20532;-74
2024/05/03 11:35:00;;;;;;;3.50;3.20;;;14.80;99.90;;;;;;5488624;26;20217;-74
2024/05/03 11:37:27;;;;;;;4.63;2.90;;;15.10;99.90;;;;;;5489130;26;20260;-73
2024/05/03 11:39:59;;;;;;;2.67;2.40;;;15.30;99.90;;;;;;5488955;26;20214;-74
2024/05/03 11:42:24;;;;;;;4.67;2.60;;;15.40;99.90;;;;;;5489978;26;20217;-74
2024/05/03 11:44:50;;;;;;;4.33;2.60;;;15.50;99.90;;;;;;5490674;26;20572;-74
2024/05/03 11:47:16;;;;;;;4.17;2.70;;;15.50;99.90;;;;;;5489684;26;20705;-74
2024/05/03 11:49:41;;;;;;;3.00;2.70;;;15.30;99.90;;;;;;5489215;26;20306;-74
2024/05/03 11:52:08;;;;;;;2.60;2.40;;;15.30;99.90;;;;;;5489449;26;20210;-74
2024/05/03 11:54:34;;;;;;;3.13;2.53;;;15.40;99.90;;;;;;5490320;26;20638;-74
2024/05/03 11:57:03;;;;;;;3.37;2.90;;;15.60;99.90;;;;;;5489388;26;20226;-74
2024/05/03 11:59:29;;;;;;;3.67;2.83;;;15.40;1.00;;;;;;5489005;26;20221;-74
2024/05/03 12:01:54;;;;;;;3.23;2.63;;;15.30;1.00;;;;;;5488478;26;20265;-74
2024/05/03 12:04:20;;;;;;;3.60;2.73;;;15.20;1.00;;;;;;5487354;26;20304;-74
2024/05/03 12:06:46;;;;;;;3.80;2.87;;;15.20;1.00;;;;;;5488203;26;20257;-73
2024/05/03 12:09:11;;;;;;;5.07;2.90;;;14.90;1.00;;;;;;5488294;26;20210;-73
2024/05/03 12:11:37;;;;;;;4.73;3.00;;;14.70;1.00;;;;;;5488482;26;20218;-73
2024/05/03 12:14:03;;;;;;;4.13;2.97;;;14.80;1.00;;;;;;5488583;26;20662;-74
2024/05/03 12:16:30;;;;;;;2.97;2.77;;;14.60;1.00;;;;;;5486185;26;20826;-74
2024/05/03 12:18:56;;;;;;;6.70;3.47;;;14.60;1.00;;;;;;5488000;26;20210;-74
2024/05/03 12:21:21;;;;;;;3.87;2.70;;;14.70;1.00;;;;;;5487638;26;20222;-74
2024/05/03 12:23:47;;;;;;;5.73;2.97;;;15.00;1.00;;;;;;5487976;26;20257;-74
2024/05/03 12:26:13;;;;;;;4.67;2.70;;;15.10;1.00;;;;;;5487982;26;20249;-74
2024/05/03 12:28:38;;;;;;;6.43;2.90;;;15.20;1.00;;;;;;5488189;26;20249;-75
2024/05/03 12:31:04;;;;;;;4.20;2.90;;;15.10;1.00;;;;;;5487920;26;20210;-74
2024/05/03 12:33:29;;;;;;;3.87;3.47;;;15.10;1.00;;;;;;5488423;26;20788;-75
2024/05/03 12:35:55;;;;;;;3.83;3.10;;;15.00;1.00;;;;;;5488018;26;20226;-75
2024/05/03 12:38:21;;;;;;;7.33;3.40;;;14.80;1.00;;;;;;5455701;26;20334;-74
2024/05/03 12:40:46;;;;;;;3.20;2.97;;;14.60;1.00;;;;;;5487493;26;20262;-76
2024/05/03 12:43:12;;;;;;;3.57;3.17;;;14.40;1.00;;;;;;5487189;26;20209;-74